Time;durP1;ratioP1;P1;durP2;ratioP2;P2;SDS_P1;SDS_P2;PMS_P1;PMS_P2;Temp;Humidity;BMP_temperature;BMP_pressure;BME280_temperature;BME280_humidity;BME280_pressure;Samples;Min_cycle;Max_cycle;Signal;HPM_P1;HPM_P2
2023/12/05 00:01:44;;;;;;;45.60;31.63;;;4.20;99.90;;;;;;6208246;23;20001;-71
2023/12/05 00:04:10;;;;;;;42.23;29.80;;;4.20;99.90;;;;;;6209063;23;20009;-71
2023/12/05 00:06:38;;;;;;;41.20;29.87;;;4.20;99.90;;;;;;6211735;23;20091;-71
2023/12/05 00:09:04;;;;;;;45.77;32.67;;;4.20;99.90;;;;;;6212786;23;20012;-71
2023/12/05 00:11:29;;;;;;;41.73;30.60;;;4.20;99.90;;;;;;6212135;23;20331;-71
2023/12/05 00:13:55;;;;;;;41.40;30.17;;;4.20;99.90;;;;;;6213560;23;20013;-71
2023/12/05 00:16:20;;;;;;;38.70;29.20;;;4.20;99.90;;;;;;6213779;23;20017;-71
2023/12/05 00:18:49;;;;;;;39.53;30.03;;;4.20;99.90;;;;;;6214169;23;20001;-71
2023/12/05 00:21:16;;;;;;;39.07;29.67;;;4.20;99.90;;;;;;6213124;23;20067;-71
2023/12/05 00:23:41;;;;;;;44.80;31.77;;;4.20;99.90;;;;;;6214018;23;20001;-71
2023/12/05 00:26:07;;;;;;;43.93;30.67;;;4.20;99.90;;;;;;6213933;23;20007;-71
2023/12/05 00:28:32;;;;;;;43.43;32.20;;;4.20;99.90;;;;;;6214035;23;20011;-71
2023/12/05 00:30:58;;;;;;;46.70;33.17;;;4.20;99.90;;;;;;6214182;23;20001;-71
2023/12/05 00:33:23;;;;;;;42.13;31.60;;;4.20;99.90;;;;;;6213687;23;20005;-71
2023/12/05 00:35:49;;;;;;;39.07;30.13;;;4.20;99.90;;;;;;6213975;23;20012;-71
2023/12/05 00:38:15;;;;;;;42.40;31.77;;;4.20;99.90;;;;;;6214451;23;19997;-71
2023/12/05 00:40:40;;;;;;;36.50;27.77;;;4.20;99.90;;;;;;6213962;23;20011;-71
2023/12/05 00:43:06;;;;;;;41.00;30.40;;;4.30;99.90;;;;;;6213669;23;20410;-71
2023/12/05 00:45:31;;;;;;;38.70;29.07;;;4.30;99.90;;;;;;6214232;23;20004;-71
2023/12/05 00:47:57;;;;;;;45.73;32.77;;;4.30;99.90;;;;;;6214182;23;20004;-71
2023/12/05 00:50:22;;;;;;;44.67;32.83;;;4.30;99.90;;;;;;6213835;23;20444;-71
2023/12/05 00:52:48;;;;;;;44.10;32.60;;;4.30;99.90;;;;;;6214040;23;20001;-71
2023/12/05 00:55:14;;;;;;;44.40;31.37;;;4.30;99.90;;;;;;6213083;23;20115;-75
2023/12/05 00:57:40;;;;;;;43.07;31.27;;;4.30;99.90;;;;;;6187185;23;20043;-74
2023/12/05 01:00:09;;;;;;;44.80;32.87;;;4.30;99.90;;;;;;6212238;23;20016;-75
2023/12/05 01:02:35;;;;;;;51.10;33.93;;;4.30;99.90;;;;;;6213701;23;20032;-75
2023/12/05 01:05:02;;;;;;;46.10;32.67;;;4.20;99.90;;;;;;6213241;23;20000;-75
2023/12/05 01:07:28;;;;;;;43.13;31.07;;;4.30;99.90;;;;;;6214129;23;20367;-75
2023/12/05 01:09:53;;;;;;;47.13;34.47;;;4.30;99.90;;;;;;6214074;23;20008;-77
2023/12/05 01:12:19;;;;;;;46.00;33.43;;;4.30;99.90;;;;;;6213745;23;20037;-77
2023/12/05 01:14:44;;;;;;;47.23;32.33;;;4.30;99.90;;;;;;6213717;23;19997;-77
2023/12/05 01:17:10;;;;;;;46.30;32.23;;;4.30;99.90;;;;;;6213446;23;20008;-77
2023/12/05 01:19:37;;;;;;;47.57;34.03;;;4.30;99.90;;;;;;6186446;23;20011;-77
2023/12/05 01:22:03;;;;;;;48.73;33.60;;;4.30;99.90;;;;;;6213535;23;20067;-77
2023/12/05 01:24:29;;;;;;;45.77;31.00;;;4.30;99.90;;;;;;6213725;23;20001;-77
2023/12/05 01:26:54;;;;;;;46.53;34.07;;;4.30;99.90;;;;;;6213796;23;20008;-77
2023/12/05 01:29:20;;;;;;;50.20;34.50;;;4.20;99.90;;;;;;6213916;23;20016;-77
2023/12/05 01:31:46;;;;;;;47.40;33.70;;;4.30;99.90;;;;;;6214034;23;20091;-77
2023/12/05 01:34:12;;;;;;;47.53;33.43;;;4.30;99.90;;;;;;6188005;23;20044;-77
2023/12/05 01:36:38;;;;;;;46.50;32.50;;;4.30;99.90;;;;;;6186976;23;20028;-77
2023/12/05 01:39:03;;;;;;;44.17;30.57;;;4.30;99.90;;;;;;6213341;23;20084;-77
2023/12/05 01:41:29;;;;;;;49.90;35.17;;;4.20;99.90;;;;;;6213895;23;20031;-77
2023/12/05 01:43:54;;;;;;;49.67;33.00;;;4.30;99.90;;;;;;6188194;23;20001;-77
2023/12/05 01:46:21;;;;;;;53.10;35.63;;;4.30;99.90;;;;;;6214338;23;20008;-77
2023/12/05 01:48:47;;;;;;;51.00;33.47;;;4.30;99.90;;;;;;6214502;23;20005;-77
2023/12/05 01:51:13;;;;;;;45.50;30.63;;;4.20;99.90;;;;;;6213759;23;20050;-77
2023/12/05 01:53:41;;;;;;;43.37;31.77;;;4.30;99.90;;;;;;6186763;23;20004;-77
2023/12/05 01:56:10;;;;;;;46.80;31.10;;;4.20;99.90;;;;;;6186770;23;20009;-77
2023/12/05 01:58:37;;;;;;;46.47;30.97;;;4.20;99.90;;;;;;6186281;23;20001;-77
2023/12/05 02:01:04;;;;;;;42.10;30.97;;;4.20;99.90;;;;;;6213224;23;20096;-77
2023/12/05 02:03:30;;;;;;;52.67;35.17;;;4.20;99.90;;;;;;6213599;23;20334;-77
2023/12/05 02:05:57;;;;;;;53.20;35.23;;;4.30;99.90;;;;;;6213836;23;20008;-77
2023/12/05 02:08:27;;;;;;;52.60;34.83;;;4.20;99.90;;;;;;6213089;23;20001;-77
2023/12/05 02:10:53;;;;;;;58.83;35.97;;;4.20;99.90;;;;;;6213738;23;20001;-77
2023/12/05 02:13:18;;;;;;;50.77;33.83;;;4.20;99.90;;;;;;6213611;23;20005;-77
2023/12/05 02:15:46;;;;;;;46.50;31.80;;;4.20;99.90;;;;;;6186558;23;20005;-71
2023/12/05 02:18:18;;;;;;;49.43;33.30;;;4.20;99.90;;;;;;6213040;23;20005;-70
2023/12/05 02:20:50;;;;;;;47.10;31.03;;;4.20;99.90;;;;;;6213618;23;20007;-70
2023/12/05 02:23:56;;;;;;;50.23;33.53;;;4.20;99.90;;;;;;6212871;23;20046;-70
2023/12/05 02:26:34;;;;;;;51.77;33.90;;;4.20;99.90;;;;;;6212685;23;20004;-70
2023/12/05 02:29:00;;;;;;;48.20;32.13;;;4.20;99.90;;;;;;6212773;23;20008;-70
2023/12/05 02:31:25;;;;;;;51.37;36.00;;;4.20;99.90;;;;;;6212921;23;20005;-70
2023/12/05 02:33:51;;;;;;;49.37;33.87;;;4.20;99.90;;;;;;6213482;23;20319;-70
2023/12/05 02:36:32;;;;;;;50.70;33.53;;;4.20;99.90;;;;;;6212827;23;20426;-70
2023/12/05 02:39:15;;;;;;;54.07;35.30;;;4.20;99.90;;;;;;6213369;23;19997;-70
2023/12/05 02:41:45;;;;;;;50.05;32.42;;;4.20;99.90;;;;;;6213137;23;20012;-70
2023/12/05 02:44:13;;;;;;;49.23;32.73;;;4.10;99.90;;;;;;6213138;23;20001;-70
2023/12/05 02:46:41;;;;;;;57.17;37.63;;;4.10;99.90;;;;;;6186471;23;20054;-70
2023/12/05 02:49:09;;;;;;;49.33;32.13;;;4.10;99.90;;;;;;6186168;23;20016;-70
2023/12/05 02:51:34;;;;;;;49.10;33.30;;;4.20;99.90;;;;;;6212734;23;20001;-70
2023/12/05 02:54:03;;;;;;;52.03;34.13;;;4.20;99.90;;;;;;6186021;23;20008;-70
2023/12/05 02:56:29;;;;;;;54.80;35.80;;;4.20;99.90;;;;;;6212409;23;20008;-70
2023/12/05 02:58:55;;;;;;;51.33;34.57;;;4.20;99.90;;;;;;6212626;23;20081;-70
2023/12/05 03:01:20;;;;;;;48.97;33.27;;;4.10;99.90;;;;;;6213026;23;20334;-70
2023/12/05 03:03:46;;;;;;;46.73;30.30;;;4.10;99.90;;;;;;6212773;23;19997;-70
2023/12/05 03:06:11;;;;;;;49.80;33.73;;;4.10;99.90;;;;;;6212694;23;20035;-70
2023/12/05 03:08:37;;;;;;;49.17;32.47;;;4.10;99.90;;;;;;6212861;23;20050;-70
2023/12/05 03:11:02;;;;;;;58.47;37.53;;;4.10;99.90;;;;;;6212746;23;19997;-70
2023/12/05 03:13:28;;;;;;;47.40;31.17;;;4.10;99.90;;;;;;6212522;23;20004;-70
2023/12/05 03:15:53;;;;;;;63.27;37.13;;;4.00;99.90;;;;;;6212733;23;20438;-70
2023/12/05 03:18:19;;;;;;;53.17;34.60;;;4.00;99.90;;;;;;6212162;23;20446;-71
2023/12/05 03:20:45;;;;;;;44.57;30.10;;;4.00;99.90;;;;;;6212243;23;20143;-71
2023/12/05 03:23:10;;;;;;;57.77;33.77;;;4.00;99.90;;;;;;6212898;23;20007;-70
2023/12/05 03:25:36;;;;;;;53.33;34.23;;;3.90;99.90;;;;;;6212757;23;20012;-70
2023/12/05 03:28:01;;;;;;;58.10;35.43;;;4.00;99.90;;;;;;6212574;23;20055;-70
2023/12/05 03:30:27;;;;;;;55.77;34.10;;;3.90;99.90;;;;;;6212808;23;20028;-70
2023/12/05 03:32:53;;;;;;;52.33;34.07;;;4.00;99.90;;;;;;6212532;23;20338;-75
2023/12/05 03:35:18;;;;;;;53.07;34.27;;;3.90;99.90;;;;;;6211982;23;20009;-77
2023/12/05 03:37:44;;;;;;;50.73;33.50;;;3.90;99.90;;;;;;6186163;23;19997;-77
2023/12/05 03:40:09;;;;;;;50.80;31.10;;;3.90;99.90;;;;;;6211019;23;20028;-77
2023/12/05 03:42:35;;;;;;;53.23;32.70;;;3.90;99.90;;;;;;6210790;23;20008;-77
2023/12/05 03:45:01;;;;;;;50.00;30.57;;;3.90;99.90;;;;;;6212344;23;20068;-77
2023/12/05 03:47:26;;;;;;;44.50;30.63;;;3.90;99.90;;;;;;6213336;23;20055;-77
2023/12/05 03:49:52;;;;;;;52.30;32.83;;;3.90;99.90;;;;;;6212430;23;20001;-77
2023/12/05 03:52:18;;;;;;;55.80;32.23;;;3.90;99.90;;;;;;6212670;23;20414;-77
2023/12/05 03:54:43;;;;;;;43.67;29.83;;;3.90;99.90;;;;;;6213153;23;20422;-77
2023/12/05 03:57:09;;;;;;;55.47;34.20;;;3.90;99.90;;;;;;6185894;23;20051;-77
2023/12/05 03:59:34;;;;;;;51.70;33.40;;;3.90;99.90;;;;;;6186501;23;20067;-77
2023/12/05 04:02:00;;;;;;;52.30;33.27;;;3.90;99.90;;;;;;6186134;23;20083;-77
2023/12/05 04:04:25;;;;;;;56.77;32.17;;;3.80;99.90;;;;;;6212741;23;20485;-77
2023/12/05 04:06:51;;;;;;;55.97;34.57;;;3.80;99.90;;;;;;6213225;23;20449;-77
2023/12/05 04:09:17;;;;;;;60.47;35.87;;;3.80;99.90;;;;;;6186185;23;20005;-77
2023/12/05 04:11:43;;;;;;;63.50;35.77;;;3.80;99.90;;;;;;6211801;23;20008;-77
2023/12/05 04:14:08;;;;;;;55.77;33.87;;;3.80;99.90;;;;;;6212576;23;20000;-77
2023/12/05 04:16:35;;;;;;;54.50;34.23;;;3.80;99.90;;;;;;6213111;23;20557;-77
2023/12/05 04:19:01;;;;;;;67.50;36.90;;;3.80;99.90;;;;;;6212531;23;20047;-77
2023/12/05 04:21:26;;;;;;;57.53;34.90;;;3.80;99.90;;;;;;6186478;23;20005;-77
2023/12/05 04:23:52;;;;;;;64.60;37.43;;;3.80;99.90;;;;;;6212887;23;20414;-77
2023/12/05 04:26:19;;;;;;;52.60;33.57;;;3.80;99.90;;;;;;6212383;23;20005;-77
2023/12/05 04:28:45;;;;;;;57.07;34.87;;;3.80;99.90;;;;;;6212860;23;20001;-77
2023/12/05 04:31:11;;;;;;;60.03;33.33;;;3.80;99.90;;;;;;6184517;23;20008;-77
2023/12/05 04:33:39;;;;;;;58.07;33.17;;;3.80;99.90;;;;;;6212032;23;20076;-71
2023/12/05 04:36:05;;;;;;;61.30;35.43;;;3.80;99.90;;;;;;6211123;23;20018;-71
2023/12/05 04:38:31;;;;;;;50.70;31.77;;;3.80;99.90;;;;;;6211794;23;20004;-71
2023/12/05 04:40:57;;;;;;;56.10;34.20;;;3.80;99.90;;;;;;6211486;23;20015;-71
2023/12/05 04:43:22;;;;;;;50.73;31.07;;;3.80;99.90;;;;;;6211857;23;20024;-71
2023/12/05 04:45:48;;;;;;;56.43;35.30;;;3.80;99.90;;;;;;6211873;23;20005;-71
2023/12/05 04:48:13;;;;;;;53.03;33.30;;;3.80;99.90;;;;;;6211719;23;20338;-70
2023/12/05 04:50:39;;;;;;;53.03;33.27;;;3.80;99.90;;;;;;6211538;23;20427;-70
2023/12/05 04:53:04;;;;;;;53.37;34.87;;;3.80;99.90;;;;;;6212308;23;20005;-71
2023/12/05 04:55:30;;;;;;;58.83;34.07;;;3.80;99.90;;;;;;6213747;23;20015;-71
2023/12/05 04:57:55;;;;;;;50.13;30.80;;;3.80;99.90;;;;;;6213863;23;20186;-71
2023/12/05 05:00:21;;;;;;;61.47;36.50;;;3.80;99.90;;;;;;6213096;23;20089;-71
2023/12/05 05:02:46;;;;;;;66.03;35.57;;;3.80;99.90;;;;;;6213495;23;20004;-71
2023/12/05 05:05:13;;;;;;;51.67;31.37;;;3.80;99.90;;;;;;6213780;23;20100;-71
2023/12/05 05:07:39;;;;;;;54.07;32.80;;;3.80;99.90;;;;;;6213571;23;20088;-71
2023/12/05 05:10:05;;;;;;;47.17;29.97;;;3.80;99.90;;;;;;6213029;23;20427;-71
2023/12/05 05:12:31;;;;;;;53.03;32.03;;;3.90;99.90;;;;;;6213653;23;20001;-71
2023/12/05 05:14:56;;;;;;;52.00;31.80;;;3.80;99.90;;;;;;6213147;23;20024;-71
2023/12/05 05:17:22;;;;;;;50.67;30.17;;;3.90;99.90;;;;;;6213148;23;20001;-70
2023/12/05 05:19:47;;;;;;;50.90;31.23;;;3.90;99.90;;;;;;6213062;23;20027;-71
2023/12/05 05:22:13;;;;;;;57.23;32.20;;;3.90;99.90;;;;;;6211521;23;20004;-71
2023/12/05 05:24:39;;;;;;;45.20;29.33;;;3.90;99.90;;;;;;6211952;23;20001;-72
2023/12/05 05:27:04;;;;;;;52.13;30.17;;;3.90;99.90;;;;;;6211466;23;20008;-71
2023/12/05 05:29:30;;;;;;;49.47;30.57;;;3.90;99.90;;;;;;6212031;23;20004;-71
2023/12/05 05:31:55;;;;;;;51.80;30.33;;;4.00;99.90;;;;;;6212875;23;20013;-71
2023/12/05 05:34:21;;;;;;;47.37;29.63;;;4.00;99.90;;;;;;6212984;23;20008;-71
2023/12/05 05:36:46;;;;;;;46.70;29.97;;;4.10;99.90;;;;;;6213364;23;20055;-71
2023/12/05 05:39:12;;;;;;;51.63;32.50;;;4.10;99.90;;;;;;6212805;23;20438;-71
2023/12/05 05:41:38;;;;;;;47.73;28.87;;;4.10;99.90;;;;;;6213102;23;20001;-71
2023/12/05 05:44:03;;;;;;;45.33;30.17;;;4.10;99.90;;;;;;6212635;23;19996;-71
2023/12/05 05:46:29;;;;;;;44.07;26.57;;;4.10;99.90;;;;;;6211274;23;20035;-71
2023/12/05 05:48:55;;;;;;;43.13;27.57;;;4.10;99.90;;;;;;6211087;23;20005;-71
2023/12/05 05:51:20;;;;;;;43.67;28.90;;;4.10;99.90;;;;;;6211676;23;20000;-71
2023/12/05 05:53:46;;;;;;;46.13;27.87;;;4.20;99.90;;;;;;6184843;23;20087;-71
2023/12/05 05:56:11;;;;;;;46.37;30.50;;;4.20;99.90;;;;;;6213197;23;20020;-71
2023/12/05 05:58:37;;;;;;;42.53;27.27;;;4.10;99.90;;;;;;6212543;23;20080;-71
2023/12/05 06:01:03;;;;;;;42.80;28.13;;;4.10;99.90;;;;;;6212805;23;20395;-71
2023/12/05 06:03:30;;;;;;;45.10;28.83;;;4.10;99.90;;;;;;6212795;23;20399;-71
2023/12/05 06:05:59;;;;;;;42.23;26.60;;;4.10;99.90;;;;;;6212656;23;20024;-71
2023/12/05 06:08:25;;;;;;;41.07;27.40;;;4.10;99.90;;;;;;6212755;23;20024;-71
2023/12/05 06:10:51;;;;;;;42.67;28.50;;;4.10;99.90;;;;;;6212809;23;20001;-71
2023/12/05 06:13:17;;;;;;;48.13;30.00;;;4.10;99.90;;;;;;6212951;23;20007;-71
2023/12/05 06:15:42;;;;;;;41.40;27.30;;;4.10;99.90;;;;;;6212532;23;20055;-71
2023/12/05 06:18:09;;;;;;;44.70;28.47;;;4.10;99.90;;;;;;6212610;23;20406;-71
2023/12/05 06:20:34;;;;;;;50.93;29.70;;;4.10;99.90;;;;;;6212711;23;20001;-71
2023/12/05 06:23:00;;;;;;;48.17;29.03;;;4.10;99.90;;;;;;6212195;23;20714;-71
2023/12/05 06:25:25;;;;;;;39.40;26.47;;;4.10;99.90;;;;;;6212561;23;20008;-71
2023/12/05 06:27:51;;;;;;;51.00;30.70;;;4.10;99.90;;;;;;6212588;23;20009;-71
2023/12/05 06:30:16;;;;;;;39.10;25.93;;;4.10;99.90;;;;;;6212569;23;20723;-71
2023/12/05 06:32:42;;;;;;;40.33;24.63;;;4.10;99.90;;;;;;6212538;23;19996;-71
2023/12/05 06:35:08;;;;;;;40.33;25.77;;;4.10;99.90;;;;;;6212383;23;20409;-71
2023/12/05 06:37:33;;;;;;;42.03;26.37;;;4.10;99.90;;;;;;6212530;23;20445;-71
2023/12/05 06:39:59;;;;;;;35.33;24.50;;;4.10;99.90;;;;;;6213036;23;20003;-71
2023/12/05 06:42:25;;;;;;;38.90;25.97;;;4.10;99.90;;;;;;6212061;23;19997;-71
2023/12/05 06:44:51;;;;;;;34.17;24.23;;;4.20;99.90;;;;;;6212976;23;20000;-71
2023/12/05 06:47:16;;;;;;;34.47;23.60;;;4.20;99.90;;;;;;6185317;23;20058;-71
2023/12/05 06:49:43;;;;;;;32.50;23.13;;;4.20;99.90;;;;;;6212638;23;20322;-71
2023/12/05 06:52:11;;;;;;;33.83;23.97;;;4.20;99.90;;;;;;6211754;23;20418;-71
2023/12/05 06:54:37;;;;;;;41.10;24.97;;;4.30;99.90;;;;;;6212297;23;20008;-71
2023/12/05 06:57:02;;;;;;;34.87;22.97;;;4.30;99.90;;;;;;6211970;23;20022;-71
2023/12/05 06:59:28;;;;;;;36.40;24.97;;;4.20;99.90;;;;;;6211704;23;20422;-71
2023/12/05 07:01:53;;;;;;;38.63;25.80;;;4.30;99.90;;;;;;6212459;23;20522;-71
2023/12/05 07:04:19;;;;;;;38.20;26.50;;;4.20;99.90;;;;;;6212371;23;20080;-71
2023/12/05 07:06:45;;;;;;;38.63;26.20;;;4.30;99.90;;;;;;6212026;23;20032;-71
2023/12/05 07:09:10;;;;;;;39.40;25.73;;;4.30;99.90;;;;;;6212299;23;19997;-71
2023/12/05 07:11:36;;;;;;;34.90;23.77;;;4.30;99.90;;;;;;6212194;23;20112;-71
2023/12/05 07:14:01;;;;;;;39.73;24.63;;;4.20;99.90;;;;;;6212095;23;20009;-71
2023/12/05 07:16:27;;;;;;;37.67;25.47;;;4.30;99.90;;;;;;6211842;23;20019;-71
2023/12/05 07:18:52;;;;;;;41.63;26.20;;;4.30;99.90;;;;;;6212455;23;20000;-71
2023/12/05 07:21:18;;;;;;;42.47;27.07;;;4.20;99.90;;;;;;6211388;23;19997;-71
2023/12/05 07:23:43;;;;;;;46.80;29.00;;;4.20;99.90;;;;;;6212278;23;19997;-71
2023/12/05 07:26:09;;;;;;;38.90;26.73;;;4.20;99.90;;;;;;6211474;23;20003;-71
2023/12/05 07:28:34;;;;;;;44.97;28.07;;;4.20;99.90;;;;;;6212079;23;20023;-71
2023/12/05 07:31:00;;;;;;;45.53;29.40;;;4.20;99.90;;;;;;6209613;23;20004;-71
2023/12/05 07:33:25;;;;;;;44.70;28.73;;;4.20;99.90;;;;;;6211526;23;20009;-71
2023/12/05 07:35:51;;;;;;;40.10;25.83;;;4.20;99.90;;;;;;6211640;23;20104;-71
2023/12/05 07:38:17;;;;;;;40.40;25.97;;;4.20;99.90;;;;;;6211769;23;20028;-71
2023/12/05 07:40:42;;;;;;;40.00;25.37;;;4.20;99.90;;;;;;6211729;23;20456;-71
2023/12/05 07:43:08;;;;;;;42.50;27.17;;;4.20;99.90;;;;;;6211159;23;20011;-71
2023/12/05 07:45:34;;;;;;;42.00;28.23;;;4.20;99.90;;;;;;6210952;23;19996;-72
2023/12/05 07:47:59;;;;;;;41.90;25.73;;;4.20;99.90;;;;;;6211636;23;20442;-71
2023/12/05 07:50:25;;;;;;;41.57;28.07;;;4.20;99.90;;;;;;6210853;23;20009;-71
2023/12/05 07:52:51;;;;;;;57.07;32.63;;;4.20;99.90;;;;;;6211558;23;20081;-71
2023/12/05 07:55:18;;;;;;;42.43;29.37;;;4.20;99.90;;;;;;6211094;23;20039;-71
2023/12/05 07:57:46;;;;;;;52.50;30.03;;;4.20;99.90;;;;;;6211017;23;20054;-72
2023/12/05 08:00:16;;;;;;;48.87;31.17;;;4.20;99.90;;;;;;6211051;23;20012;-71
2023/12/05 08:02:45;;;;;;;45.03;29.43;;;4.20;99.90;;;;;;6211824;23;20007;-70
2023/12/05 08:05:11;;;;;;;42.30;29.63;;;4.20;99.90;;;;;;6211499;23;20080;-73
2023/12/05 08:07:38;;;;;;;50.77;30.77;;;4.20;99.90;;;;;;6210201;23;20031;-73
2023/12/05 08:10:08;;;;;;;45.47;28.43;;;4.20;99.90;;;;;;6210302;23;20331;-73
2023/12/05 08:12:34;;;;;;;44.60;28.97;;;4.30;99.90;;;;;;6211371;23;20000;-72
2023/12/05 08:15:00;;;;;;;44.17;28.40;;;4.30;99.90;;;;;;6210647;23;20079;-72
2023/12/05 08:17:26;;;;;;;43.50;28.93;;;4.30;99.90;;;;;;6210827;23;20036;-72
2023/12/05 08:19:52;;;;;;;40.57;27.73;;;4.30;99.90;;;;;;6211097;23;19996;-72
2023/12/05 08:22:18;;;;;;;43.03;28.17;;;4.30;99.90;;;;;;6210612;23;20174;-72
2023/12/05 08:24:43;;;;;;;47.57;28.90;;;4.30;99.90;;;;;;6210797;23;20028;-73
2023/12/05 08:27:09;;;;;;;43.57;28.73;;;4.30;99.90;;;;;;6210728;23;20007;-74
2023/12/05 08:29:34;;;;;;;44.50;28.20;;;4.30;99.90;;;;;;6213388;23;20001;-73
2023/12/05 08:32:00;;;;;;;46.83;29.73;;;4.30;99.90;;;;;;6186187;23;20035;-74
2023/12/05 08:34:25;;;;;;;39.63;27.63;;;4.30;99.90;;;;;;6212584;23;20011;-74
2023/12/05 08:36:51;;;;;;;37.80;26.83;;;4.40;99.90;;;;;;6212741;23;20004;-74
2023/12/05 08:39:17;;;;;;;42.90;28.97;;;4.40;99.90;;;;;;6211965;23;20008;-74
2023/12/05 08:41:42;;;;;;;42.63;27.93;;;4.40;99.90;;;;;;6186370;23;20008;-74
2023/12/05 08:44:08;;;;;;;44.70;29.10;;;4.30;99.90;;;;;;6212388;23;19996;-74
2023/12/05 08:46:34;;;;;;;44.10;28.70;;;4.30;99.90;;;;;;6213277;23;20000;-74
2023/12/05 08:48:59;;;;;;;41.03;28.10;;;4.30;99.90;;;;;;6212616;23;20444;-74
2023/12/05 08:51:25;;;;;;;42.23;29.03;;;4.30;99.90;;;;;;6213208;23;20072;-71
2023/12/05 08:53:50;;;;;;;40.47;27.83;;;4.30;99.90;;;;;;6187200;23;20032;-70
2023/12/05 08:56:16;;;;;;;38.40;25.77;;;4.30;99.90;;;;;;6214382;23;20019;-72
2023/12/05 08:58:42;;;;;;;45.30;27.93;;;4.30;99.90;;;;;;6187902;23;20004;-72
2023/12/05 09:01:11;;;;;;;35.00;24.53;;;4.30;99.90;;;;;;6187488;23;20378;-73
2023/12/05 09:03:36;;;;;;;37.40;25.20;;;4.30;99.90;;;;;;6214579;23;20430;-73
2023/12/05 09:06:02;;;;;;;36.27;24.80;;;4.30;99.90;;;;;;6187468;23;20009;-73
2023/12/05 09:08:28;;;;;;;42.07;27.87;;;4.30;99.90;;;;;;6214355;23;20009;-73
2023/12/05 09:10:56;;;;;;;37.97;25.87;;;4.30;99.90;;;;;;6214408;23;20008;-73
2023/12/05 09:13:21;;;;;;;28.93;22.27;;;4.30;99.90;;;;;;6215088;23;20012;-73
2023/12/05 09:15:47;;;;;;;38.33;25.63;;;4.30;99.90;;;;;;6187511;23;20020;-73
2023/12/05 09:18:13;;;;;;;37.50;25.10;;;4.30;99.90;;;;;;6215153;23;20001;-73
2023/12/05 09:20:38;;;;;;;33.87;23.30;;;4.30;99.90;;;;;;6215788;23;20477;-73
2023/12/05 09:23:04;;;;;;;36.30;24.70;;;4.30;99.90;;;;;;6215428;23;20054;-73
2023/12/05 09:25:29;;;;;;;38.40;25.97;;;4.30;99.90;;;;;;6215630;23;20001;-73
2023/12/05 09:27:55;;;;;;;36.17;25.53;;;4.30;99.90;;;;;;6214613;23;20040;-73
2023/12/05 09:30:20;;;;;;;35.23;24.03;;;4.30;99.90;;;;;;6188410;23;20013;-73
2023/12/05 09:32:46;;;;;;;42.17;27.63;;;4.30;99.90;;;;;;6214351;23;20008;-73
2023/12/05 09:35:12;;;;;;;34.17;23.13;;;4.20;99.90;;;;;;6214205;23;20001;-73
2023/12/05 09:37:37;;;;;;;40.50;24.87;;;4.30;99.90;;;;;;6214311;23;20001;-73
2023/12/05 09:40:03;;;;;;;38.30;24.47;;;4.30;99.90;;;;;;6213945;23;20007;-73
2023/12/05 09:42:30;;;;;;;32.67;23.67;;;4.30;99.90;;;;;;6187603;23;20062;-73
2023/12/05 09:44:59;;;;;;;32.87;23.87;;;4.40;99.90;;;;;;6214296;23;20000;-73
2023/12/05 09:47:27;;;;;;;34.53;23.80;;;4.40;99.90;;;;;;6213650;23;20023;-73
2023/12/05 09:49:54;;;;;;;36.97;25.40;;;4.40;99.90;;;;;;6214072;23;20011;-73
2023/12/05 09:52:20;;;;;;;35.40;23.70;;;4.40;99.90;;;;;;6213195;23;20004;-73
2023/12/05 09:54:47;;;;;;;30.87;21.60;;;4.40;99.90;;;;;;6212367;23;20005;-73
2023/12/05 09:57:13;;;;;;;30.23;22.17;;;4.50;99.90;;;;;;6212588;23;20091;-72
2023/12/05 09:59:39;;;;;;;35.77;24.73;;;4.50;99.90;;;;;;6212372;23;19996;-72
2023/12/05 10:02:06;;;;;;;35.67;22.47;;;4.50;99.90;;;;;;6212640;23;20028;-72
2023/12/05 10:04:42;;;;;;;33.73;24.40;;;4.50;99.90;;;;;;6212531;23;20063;-73
2023/12/05 10:07:09;;;;;;;31.50;23.50;;;4.50;99.90;;;;;;6212147;23;20007;-73
2023/12/05 10:09:36;;;;;;;42.93;26.97;;;4.50;99.90;;;;;;6212642;23;20000;-72
2023/12/05 10:12:04;;;;;;;32.97;22.80;;;4.50;99.90;;;;;;6211824;23;20063;-72
2023/12/05 10:14:30;;;;;;;30.17;21.73;;;4.40;99.90;;;;;;6211114;23;20005;-72
2023/12/05 10:16:57;;;;;;;36.50;22.77;;;4.40;99.90;;;;;;6210755;23;20024;-72
2023/12/05 10:19:23;;;;;;;32.27;23.07;;;4.40;99.90;;;;;;6184510;23;20009;-72
2023/12/05 10:21:50;;;;;;;30.60;21.10;;;4.40;99.90;;;;;;6212093;23;20372;-73
2023/12/05 10:24:17;;;;;;;31.30;21.00;;;4.40;99.90;;;;;;6212737;23;20063;-72
2023/12/05 10:26:45;;;;;;;30.43;20.67;;;4.40;99.90;;;;;;6211608;23;20001;-72
2023/12/05 10:29:10;;;;;;;30.97;20.67;;;4.40;99.90;;;;;;6212539;23;20000;-72
2023/12/05 10:31:36;;;;;;;27.67;20.97;;;4.40;99.90;;;;;;6211722;23;19997;-72
2023/12/05 10:34:05;;;;;;;30.47;20.60;;;4.40;99.90;;;;;;6185414;23;20004;-73
2023/12/05 10:36:31;;;;;;;29.07;20.63;;;4.40;99.90;;;;;;6212524;23;20074;-73
2023/12/05 10:38:57;;;;;;;30.93;21.33;;;4.40;99.90;;;;;;6212262;23;20032;-73
2023/12/05 10:41:24;;;;;;;32.17;21.47;;;4.40;99.90;;;;;;6212109;23;20004;-72
2023/12/05 10:43:51;;;;;;;27.93;19.43;;;4.40;99.90;;;;;;6212666;23;19997;-72
2023/12/05 10:46:17;;;;;;;33.37;22.23;;;4.30;99.90;;;;;;6212529;23;20020;-72
2023/12/05 10:48:47;;;;;;;27.67;20.03;;;4.40;99.90;;;;;;6185590;23;19996;-73
2023/12/05 10:51:13;;;;;;;31.57;23.13;;;4.40;99.90;;;;;;6211610;23;20004;-72
2023/12/05 10:53:39;;;;;;;38.23;23.50;;;4.40;99.90;;;;;;6212584;23;20031;-72
2023/12/05 10:56:12;;;;;;;29.57;22.20;;;4.40;99.90;;;;;;6211845;23;20009;-72
2023/12/05 10:58:39;;;;;;;34.27;22.90;;;4.40;99.90;;;;;;6212466;23;20000;-72
2023/12/05 11:01:07;;;;;;;34.13;24.23;;;4.40;99.90;;;;;;6211702;23;20004;-72
2023/12/05 11:03:33;;;;;;;37.43;25.53;;;4.30;99.90;;;;;;6212382;23;20011;-72
2023/12/05 11:05:58;;;;;;;37.73;24.93;;;4.30;99.90;;;;;;6212257;23;20092;-72
2023/12/05 11:08:24;;;;;;;37.43;24.80;;;4.30;99.90;;;;;;6212504;23;20004;-72
2023/12/05 11:10:53;;;;;;;36.30;24.60;;;4.30;99.90;;;;;;6212732;23;20305;-73
2023/12/05 11:13:20;;;;;;;36.40;24.93;;;4.20;99.90;;;;;;6213389;23;20015;-73
2023/12/05 11:15:49;;;;;;;36.50;25.00;;;4.20;99.90;;;;;;6211876;23;20016;-72
2023/12/05 11:18:27;;;;;;;37.67;26.70;;;4.20;99.90;;;;;;6184740;23;20005;-73
2023/12/05 11:21:17;;;;;;;36.10;24.87;;;4.30;99.90;;;;;;6212393;23;19996;-73
2023/12/05 11:24:04;;;;;;;36.70;25.40;;;4.30;99.90;;;;;;6212625;23;20076;-73
2023/12/05 11:27:08;;;;;;;37.10;25.47;;;4.30;99.90;;;;;;6185207;23;20342;-73
2023/12/05 11:30:08;;;;;;;40.20;25.80;;;4.30;99.90;;;;;;6206328;23;20426;-72
2023/12/05 11:32:57;;;;;;;34.57;23.83;;;4.30;99.90;;;;;;6171900;23;20017;-72
2023/12/05 11:35:47;;;;;;;39.83;24.97;;;4.30;99.90;;;;;;6211711;23;20031;-72
2023/12/05 11:38:17;;;;;;;40.20;26.00;;;4.40;99.90;;;;;;6211840;23;20065;-72
2023/12/05 11:40:42;;;;;;;37.27;24.80;;;4.40;99.90;;;;;;6211929;23;20036;-72
2023/12/05 11:43:11;;;;;;;33.03;22.63;;;4.40;99.90;;;;;;6185001;23;20012;-72
2023/12/05 11:45:42;;;;;;;42.70;24.57;;;4.30;99.90;;;;;;6211762;23;20000;-73
2023/12/05 11:48:13;;;;;;;35.17;24.00;;;4.30;99.90;;;;;;6211557;23;20001;-73
2023/12/05 11:50:48;;;;;;;35.43;24.23;;;4.40;99.90;;;;;;6211268;23;20031;-73
2023/12/05 11:53:15;;;;;;;36.37;25.90;;;4.30;99.90;;;;;;6212058;23;20009;-72
2023/12/05 11:55:42;;;;;;;41.40;25.17;;;4.30;99.90;;;;;;6211819;23;20531;-72
2023/12/05 11:58:30;;;;;;;33.47;23.37;;;4.30;99.90;;;;;;6211886;23;20442;-73
2023/12/05 12:01:09;;;;;;;32.57;22.37;;;4.30;99.90;;;;;;6211240;23;20308;-73
2023/12/05 12:03:50;;;;;;;28.53;20.30;;;4.30;99.90;;;;;;6186461;23;20007;-73
2023/12/05 12:06:18;;;;;;;33.07;20.50;;;4.20;99.90;;;;;;6211798;23;20028;-73
2023/12/05 12:08:45;;;;;;;27.80;20.37;;;4.20;99.90;;;;;;6214187;23;20008;-73
2023/12/05 12:11:11;;;;;;;32.60;20.17;;;4.20;99.90;;;;;;6213675;23;20000;-73
2023/12/05 12:13:37;;;;;;;27.10;19.73;;;4.20;99.90;;;;;;6213748;23;20366;-73
2023/12/05 12:16:03;;;;;;;29.33;20.83;;;4.20;99.90;;;;;;6212530;23;20023;-73
2023/12/05 12:18:30;;;;;;;36.93;23.97;;;4.20;99.90;;;;;;6213306;23;20430;-73
2023/12/05 12:20:56;;;;;;;37.53;25.47;;;4.20;99.90;;;;;;6213431;23;20028;-73
2023/12/05 12:23:22;;;;;;;44.33;27.93;;;4.20;99.90;;;;;;6213060;23;20000;-73
2023/12/05 12:25:53;;;;;;;44.33;26.40;;;4.20;99.90;;;;;;6213842;23;20004;-73
2023/12/05 12:28:30;;;;;;;45.47;27.47;;;4.20;99.90;;;;;;6213146;23;20017;-73
2023/12/05 12:30:57;;;;;;;46.03;28.67;;;4.20;99.90;;;;;;6212663;23;20440;-73
2023/12/05 12:33:28;;;;;;;46.00;28.87;;;4.10;99.90;;;;;;6211843;23;20419;-74
2023/12/05 12:35:54;;;;;;;50.17;30.97;;;4.20;99.90;;;;;;6186980;23;20009;-74